Time;durP1;ratioP1;P1;durP2;ratioP2;P2;SDS_P1;SDS_P2;PMS_P1;PMS_P2;Temp;Humidity;BMP_temperature;BMP_pressure;BME280_temperature;BME280_humidity;BME280_pressure;Samples;Min_cycle;Max_cycle;Signal;HPM_P1;HPM_P2
2022/07/25 00:00:29;;;;;;;8.95;6.13;;;;;;;;;;5009650;28;20951;-63
2022/07/25 00:02:55;;;;;;;7.25;5.80;;;;;;;;;;5010990;28;20052;-63
2022/07/25 00:05:21;;;;;;;7.22;6.53;;;;;;;;;;4989523;28;20120;-63
2022/07/25 00:07:48;;;;;;;7.10;6.20;;;;;;;;;;5009830;28;20045;-63
2022/07/25 00:10:14;;;;;;;7.63;6.35;;;;;;;;;;5004939;28;20120;-63
2022/07/25 00:12:40;;;;;;;7.22;6.30;;;;;;;;;;5010000;28;20121;-63
2022/07/25 00:15:06;;;;;;;8.77;7.53;;;;;;;;;;5009062;28;20125;-63
2022/07/25 00:17:32;;;;;;;8.50;7.15;;;;;;;;;;5013662;28;20037;-62
2022/07/25 00:19:58;;;;;;;9.57;6.82;;;;;;;;;;5004544;28;20033;-63
2022/07/25 00:22:24;;;;;;;8.55;7.45;;;;;;;;;;5003542;28;20455;-63
2022/07/25 00:24:50;;;;;;;10.77;8.57;;;;;;;;;;5006221;28;20038;-63
2022/07/25 00:27:16;;;;;;;10.63;8.25;;;;;;;;;;4987653;28;20128;-63
2022/07/25 00:29:42;;;;;;;11.50;8.30;;;;;;;;;;5006125;28;20042;-63
2022/07/25 00:32:08;;;;;;;11.18;8.68;;;;;;;;;;5011454;28;20044;-62
2022/07/25 00:34:34;;;;;;;11.13;8.80;;;;;;;;;;5008140;28;20049;-63
2022/07/25 00:37:00;;;;;;;13.70;8.70;;;;;;;;;;5012759;28;20050;-62
2022/07/25 00:39:26;;;;;;;13.00;9.23;;;;;;;;;;5002231;28;20442;-62
2022/07/25 00:41:52;;;;;;;10.85;9.00;;;;;;;;;;5028365;28;20537;-62
2022/07/25 00:44:24;;;;;;;11.00;9.45;;;;;;;;;;5011554;28;20038;-62
2022/07/25 00:46:50;;;;;;;10.95;9.15;;;;;;;;;;5028008;28;20048;-62
2022/07/25 00:49:16;;;;;;;12.63;10.15;;;;;;;;;;5022338;28;20029;-62
2022/07/25 00:51:43;;;;;;;15.80;10.27;;;;;;;;;;5033163;28;20045;-62
2022/07/25 00:54:09;;;;;;;13.98;9.57;;;;;;;;;;5017870;28;20048;-62
2022/07/25 00:56:35;;;;;;;13.85;9.93;;;;;;;;;;4995429;28;20050;-62
2022/07/25 00:59:01;;;;;;;13.43;10.20;;;;;;;;;;5010250;28;20044;-62
2022/07/25 01:01:27;;;;;;;12.70;10.80;;;;;;;;;;5010836;28;20038;-62
2022/07/25 01:03:53;;;;;;;14.13;10.65;;;;;;;;;;5008095;28;20034;-63
2022/07/25 01:06:20;;;;;;;13.38;11.02;;;;;;;;;;5011925;28;20046;-63
2022/07/25 01:08:46;;;;;;;15.80;10.50;;;;;;;;;;5010566;28;20037;-63
2022/07/25 01:11:12;;;;;;;13.95;11.50;;;;;;;;;;5011370;28;20053;-62
2022/07/25 01:13:38;;;;;;;14.25;10.93;;;;;;;;;;5009393;28;20042;-63
2022/07/25 01:16:04;;;;;;;14.68;11.18;;;;;;;;;;5013134;28;20099;-63
2022/07/25 01:18:30;;;;;;;14.40;11.43;;;;;;;;;;5009145;28;20045;-63
2022/07/25 01:20:56;;;;;;;14.70;11.20;;;;;;;;;;5012483;28;20034;-63
2022/07/25 01:23:23;;;;;;;12.65;10.85;;;;;;;;;;5011802;28;20046;-62
2022/07/25 01:25:48;;;;;;;14.30;12.10;;;;;;;;;;5012132;28;20718;-62
2022/07/25 01:28:14;;;;;;;14.40;12.00;;;;;;;;;;4996079;28;20050;-62
2022/07/25 01:30:41;;;;;;;13.60;11.48;;;;;;;;;;5012123;28;20030;-62
2022/07/25 01:33:06;;;;;;;14.77;12.23;;;;;;;;;;5011260;28;20102;-62
2022/07/25 01:35:32;;;;;;;15.38;13.05;;;;;;;;;;5010041;28;20038;-62
2022/07/25 01:37:58;;;;;;;15.38;12.63;;;;;;;;;;4994346;28;20041;-62
2022/07/25 01:40:25;;;;;;;17.88;12.50;;;;;;;;;;4992832;28;20037;-62
2022/07/25 01:42:51;;;;;;;15.63;12.45;;;;;;;;;;5009411;28;20153;-62
2022/07/25 01:45:17;;;;;;;16.77;12.60;;;;;;;;;;5012258;28;20574;-62
2022/07/25 01:47:43;;;;;;;15.23;12.15;;;;;;;;;;5010040;28;20034;-62
2022/07/25 01:50:09;;;;;;;16.05;12.80;;;;;;;;;;5000736;28;20030;-62
2022/07/25 01:52:36;;;;;;;17.13;13.02;;;;;;;;;;5014266;28;20480;-62
2022/07/25 01:55:03;;;;;;;16.77;12.90;;;;;;;;;;5006867;28;20037;-62
2022/07/25 01:57:29;;;;;;;16.05;12.95;;;;;;;;;;5015465;28;20141;-62
2022/07/25 01:59:55;;;;;;;18.80;12.90;;;;;;;;;;5013822;28;20044;-62
2022/07/25 02:02:21;;;;;;;15.15;13.13;;;;;;;;;;4992486;28;20038;-62
2022/07/25 02:04:47;;;;;;;16.15;12.98;;;;;;;;;;5005762;28;20050;-62
2022/07/25 02:07:13;;;;;;;15.52;12.73;;;;;;;;;;5010494;28;20030;-62
2022/07/25 02:09:40;;;;;;;15.15;13.40;;;;;;;;;;4991034;28;20085;-62
2022/07/25 02:12:06;;;;;;;16.05;12.55;;;;;;;;;;5009009;28;20578;-62
2022/07/25 02:14:32;;;;;;;19.63;12.70;;;;;;;;;;5009934;28;20042;-62
2022/07/25 02:16:58;;;;;;;16.88;13.30;;;;;;;;;;5019244;28;20040;-62
2022/07/25 02:19:25;;;;;;;16.80;12.43;;;;;;;;;;5007146;28;20041;-62
2022/07/25 02:21:51;;;;;;;21.55;14.02;;;;;;;;;;5010950;28;20040;-62
2022/07/25 02:24:17;;;;;;;14.68;12.63;;;;;;;;;;5007859;28;20033;-62
2022/07/25 02:26:43;;;;;;;19.70;14.15;;;;;;;;;;5011736;28;20426;-62
2022/07/25 02:29:09;;;;;;;17.77;13.45;;;;;;;;;;5008555;28;20040;-62
2022/07/25 02:31:35;;;;;;;17.15;14.02;;;;;;;;;;5009782;28;20553;-62
2022/07/25 02:34:01;;;;;;;16.95;12.95;;;;;;;;;;5006218;28;20053;-62
2022/07/25 02:36:27;;;;;;;17.20;14.10;;;;;;;;;;5010164;28;20042;-62
2022/07/25 02:38:53;;;;;;;19.08;13.60;;;;;;;;;;5009424;28;20040;-62
2022/07/25 02:41:19;;;;;;;16.50;14.18;;;;;;;;;;5011892;28;20034;-62
2022/07/25 02:43:45;;;;;;;18.30;13.93;;;;;;;;;;5002051;28;20378;-62
2022/07/25 02:46:11;;;;;;;18.30;14.27;;;;;;;;;;5054928;22;20481;-59
2022/07/25 02:48:37;;;;;;;17.25;13.68;;;;;;;;;;5045921;28;20056;-59
2022/07/25 02:51:03;;;;;;;17.33;14.30;;;;;;;;;;5048171;28;20057;-59
2022/07/25 02:53:29;;;;;;;17.33;14.35;;;;;;;;;;5050404;28;20067;-59
2022/07/25 02:55:55;;;;;;;17.92;13.63;;;;;;;;;;5049765;28;20060;-59
2022/07/25 02:58:21;;;;;;;16.80;14.73;;;;;;;;;;5048044;28;20040;-59
2022/07/25 03:00:47;;;;;;;17.83;14.32;;;;;;;;;;5051249;28;20086;-59
2022/07/25 03:03:13;;;;;;;18.52;13.75;;;;;;;;;;5050431;28;20495;-59
2022/07/25 03:05:39;;;;;;;17.20;14.38;;;;;;;;;;5047090;28;20036;-59
2022/07/25 03:08:05;;;;;;;17.63;14.63;;;;;;;;;;5049811;28;20930;-60
2022/07/25 03:10:33;;;;;;;19.67;14.68;;;;;;;;;;5048347;28;20041;-59
2022/07/25 03:12:59;;;;;;;19.35;15.20;;;;;;;;;;5045410;28;20045;-60
2022/07/25 03:15:25;;;;;;;17.75;14.85;;;;;;;;;;5049828;28;20142;-59
2022/07/25 03:17:51;;;;;;;16.52;12.90;;;;;;;;;;5049964;28;20064;-59
2022/07/25 03:20:17;;;;;;;21.48;15.55;;;;;;;;;;5050301;28;20037;-59
2022/07/25 03:22:43;;;;;;;19.48;14.60;;;;;;;;;;5049666;28;20112;-60
2022/07/25 03:25:09;;;;;;;18.52;14.80;;;;;;;;;;5047799;28;20059;-59
2022/07/25 03:27:35;;;;;;;17.02;14.95;;;;;;;;;;5041687;28;20037;-59
2022/07/25 03:30:01;;;;;;;19.83;15.30;;;;;;;;;;5050029;28;20029;-60
2022/07/25 03:32:28;;;;;;;17.75;14.10;;;;;;;;;;5049671;28;20406;-59
2022/07/25 03:34:54;;;;;;;19.17;14.48;;;;;;;;;;5043759;28;20065;-59
2022/07/25 03:37:20;;;;;;;18.75;14.73;;;;;;;;;;5051246;28;20041;-59
2022/07/25 03:39:46;;;;;;;19.77;15.10;;;;;;;;;;5043447;28;20041;-60
2022/07/25 03:42:12;;;;;;;19.95;14.75;;;;;;;;;;5047112;28;20058;-60
2022/07/25 03:44:38;;;;;;;17.58;14.95;;;;;;;;;;5048320;28;20142;-60
2022/07/25 03:47:04;;;;;;;20.25;15.80;;;;;;;;;;5031167;28;20037;-59
2022/07/25 03:49:30;;;;;;;20.63;15.82;;;;;;;;;;5046366;28;20045;-59
2022/07/25 03:51:57;;;;;;;23.10;15.88;;;;;;;;;;5051190;28;20040;-59
2022/07/25 03:54:23;;;;;;;19.83;15.25;;;;;;;;;;5048427;28;20056;-59
2022/07/25 03:56:49;;;;;;;18.50;15.75;;;;;;;;;;5047247;28;20065;-60
2022/07/25 03:59:17;;;;;;;21.48;16.10;;;;;;;;;;5044804;28;20540;-60
2022/07/25 04:01:43;;;;;;;21.30;16.75;;;;;;;;;;5047934;28;20067;-59
2022/07/25 04:04:10;;;;;;;20.63;15.88;;;;;;;;;;5043877;28;20067;-59
2022/07/25 04:06:36;;;;;;;19.52;15.68;;;;;;;;;;5050924;28;20495;-59
2022/07/25 04:09:03;;;;;;;21.23;15.95;;;;;;;;;;5050571;28;20044;-60
2022/07/25 04:11:29;;;;;;;17.80;15.77;;;;;;;;;;5054321;28;20111;-60
2022/07/25 04:13:56;;;;;;;18.52;15.65;;;;;;;;;;5048781;28;20041;-60
2022/07/25 04:16:22;;;;;;;19.52;14.88;;;;;;;;;;5035283;28;20045;-59
2022/07/25 04:18:48;;;;;;;20.63;15.85;;;;;;;;;;5049765;28;20033;-60
2022/07/25 04:21:14;;;;;;;18.20;14.70;;;;;;;;;;5053595;28;20037;-59
2022/07/25 04:23:40;;;;;;;21.17;15.88;;;;;;;;;;5051000;28;20116;-59
2022/07/25 04:26:06;;;;;;;21.05;16.77;;;;;;;;;;5052298;28;20059;-60
2022/07/25 04:28:32;;;;;;;19.65;16.15;;;;;;;;;;5050849;28;20041;-59
2022/07/25 04:30:58;;;;;;;18.83;15.32;;;;;;;;;;5034604;28;20040;-59
2022/07/25 04:33:25;;;;;;;18.38;15.50;;;;;;;;;;5050741;28;20072;-60
2022/07/25 04:35:51;;;;;;;21.58;15.52;;;;;;;;;;5051988;28;20095;-59
2022/07/25 04:38:17;;;;;;;19.15;14.98;;;;;;;;;;5051176;28;20054;-59
2022/07/25 04:40:43;;;;;;;21.83;15.27;;;;;;;;;;5053702;28;20029;-59
2022/07/25 04:43:09;;;;;;;19.80;14.88;;;;;;;;;;5051267;28;20394;-59
2022/07/25 04:45:35;;;;;;;22.45;15.65;;;;;;;;;;5049266;28;20044;-60
2022/07/25 04:48:02;;;;;;;19.48;15.45;;;;;;;;;;5050184;28;20045;-60
2022/07/25 04:50:28;;;;;;;20.35;14.88;;;;;;;;;;5053223;28;20036;-59
2022/07/25 04:52:54;;;;;;;20.70;15.35;;;;;;;;;;5053609;28;20094;-59
2022/07/25 04:55:20;;;;;;;21.52;15.75;;;;;;;;;;5048621;28;20036;-60
2022/07/25 04:57:46;;;;;;;19.00;14.82;;;;;;;;;;5050919;28;20429;-59
2022/07/25 05:00:12;;;;;;;19.35;15.07;;;;;;;;;;5029205;28;20418;-59
2022/07/25 05:02:38;;;;;;;21.40;15.38;;;;;;;;;;5041517;28;20410;-59
2022/07/25 05:05:05;;;;;;;21.35;14.70;;;;;;;;;;5044082;28;20491;-59
2022/07/25 05:07:31;;;;;;;17.95;14.18;;;;;;;;;;5051619;28;20134;-59
2022/07/25 05:09:57;;;;;;;17.65;13.30;;;;;;;;;;5051666;28;20120;-59
2022/07/25 05:12:23;;;;;;;18.45;14.48;;;;;;;;;;5048789;28;20522;-59
2022/07/25 05:14:49;;;;;;;21.48;15.00;;;;;;;;;;5048743;28;20524;-59
2022/07/25 05:17:15;;;;;;;20.92;14.82;;;;;;;;;;5049754;28;20044;-59
2022/07/25 05:19:41;;;;;;;21.52;14.25;;;;;;;;;;5049888;28;20124;-60
2022/07/25 05:22:07;;;;;;;21.23;14.43;;;;;;;;;;5051265;28;20033;-60
2022/07/25 05:24:36;;;;;;;16.55;13.68;;;;;;;;;;5048101;28;20044;-59
2022/07/25 05:27:03;;;;;;;18.63;14.35;;;;;;;;;;5033177;28;20038;-60
2022/07/25 05:29:30;;;;;;;17.38;14.15;;;;;;;;;;5041150;28;20037;-60
2022/07/25 05:31:56;;;;;;;19.63;15.00;;;;;;;;;;5052377;28;20041;-60
2022/07/25 05:34:22;;;;;;;18.67;13.50;;;;;;;;;;5051376;28;20552;-60
2022/07/25 05:36:48;;;;;;;19.00;14.55;;;;;;;;;;5052731;28;20055;-59
2022/07/25 05:39:14;;;;;;;17.58;13.70;;;;;;;;;;5051463;28;20037;-60
2022/07/25 05:41:40;;;;;;;17.70;14.43;;;;;;;;;;5048181;28;20091;-60
2022/07/25 05:44:06;;;;;;;20.25;14.80;;;;;;;;;;5024892;28;20098;-61
2022/07/25 05:46:34;;;;;;;18.25;14.23;;;;;;;;;;5048184;28;20040;-60
2022/07/25 05:49:00;;;;;;;18.90;14.20;;;;;;;;;;5046221;28;20052;-60
2022/07/25 05:51:26;;;;;;;16.92;12.43;;;;;;;;;;5049358;28;20040;-60
2022/07/25 05:53:52;;;;;;;22.10;14.40;;;;;;;;;;5049036;28;20033;-60
2022/07/25 05:56:18;;;;;;;20.05;14.05;;;;;;;;;;5044772;28;20499;-61
2022/07/25 05:58:44;;;;;;;16.42;14.00;;;;;;;;;;5035239;28;20094;-62
2022/07/25 06:01:14;;;;;;;15.82;12.65;;;;;;;;;;5047427;28;20441;-62
2022/07/25 06:03:41;;;;;;;18.65;13.32;;;;;;;;;;5052567;28;20032;-62
2022/07/25 06:06:07;;;;;;;17.02;12.90;;;;;;;;;;5051394;28;20037;-62
2022/07/25 06:08:34;;;;;;;15.10;11.93;;;;;;;;;;5045522;28;20166;-62
2022/07/25 06:11:02;;;;;;;16.90;12.75;;;;;;;;;;5047608;28;20033;-62
2022/07/25 06:13:28;;;;;;;16.80;11.55;;;;;;;;;;5045759;28;20453;-62
2022/07/25 06:15:55;;;;;;;15.07;11.02;;;;;;;;;;5050325;28;20033;-62
2022/07/25 06:18:21;;;;;;;16.27;11.68;;;;;;;;;;5047952;28;20097;-62
2022/07/25 06:20:47;;;;;;;15.07;11.43;;;;;;;;;;5042258;28;20041;-62
2022/07/25 06:23:13;;;;;;;15.93;11.30;;;;;;;;;;5043502;28;20173;-62
2022/07/25 06:25:39;;;;;;;16.40;11.43;;;;;;;;;;5048238;28;20033;-62
2022/07/25 06:28:05;;;;;;;13.65;11.23;;;;;;;;;;5043239;28;20391;-61
2022/07/25 06:30:32;;;;;;;18.25;12.38;;;;;;;;;;5044199;28;20044;-62
2022/07/25 06:32:58;;;;;;;16.63;11.75;;;;;;;;;;5048375;28;20037;-62
2022/07/25 06:35:24;;;;;;;14.27;11.85;;;;;;;;;;5032221;28;20045;-62
2022/07/25 06:37:50;;;;;;;16.90;11.45;;;;;;;;;;5046263;28;20110;-62
2022/07/25 06:40:16;;;;;;;16.15;12.65;;;;;;;;;;5031228;28;20072;-62
2022/07/25 06:42:42;;;;;;;21.58;12.55;;;;;;;;;;5044781;28;20047;-62
2022/07/25 06:45:09;;;;;;;16.73;11.98;;;;;;;;;;5049922;28;20029;-62
2022/07/25 06:47:36;;;;;;;15.48;12.07;;;;;;;;;;5047980;28;20037;-62
2022/07/25 06:50:03;;;;;;;14.63;11.90;;;;;;;;;;5047513;28;20124;-62
2022/07/25 06:52:29;;;;;;;19.15;12.25;;;;;;;;;;5045993;28;20044;-62
2022/07/25 06:54:55;;;;;;;14.70;12.40;;;;;;;;;;5048491;28;20037;-62
2022/07/25 06:57:21;;;;;;;16.77;12.43;;;;;;;;;;5049287;28;20044;-62
2022/07/25 06:59:47;;;;;;;15.38;11.23;;;;;;;;;;5050158;28;20073;-62
2022/07/25 07:02:13;;;;;;;16.70;12.32;;;;;;;;;;5045227;28;20041;-62
2022/07/25 07:04:39;;;;;;;16.70;12.15;;;;;;;;;;5030155;28;20048;-62
2022/07/25 07:07:05;;;;;;;13.75;11.35;;;;;;;;;;5050994;28;20436;-62
2022/07/25 07:09:31;;;;;;;16.77;12.45;;;;;;;;;;5049046;28;20037;-62
2022/07/25 07:11:57;;;;;;;15.98;12.07;;;;;;;;;;5046343;28;20037;-62
2022/07/25 07:14:23;;;;;;;15.77;11.43;;;;;;;;;;5047694;28;20047;-62
2022/07/25 07:16:49;;;;;;;17.10;12.38;;;;;;;;;;5048678;28;20033;-62
2022/07/25 07:19:16;;;;;;;14.60;11.32;;;;;;;;;;5049257;28;20135;-62
2022/07/25 07:21:42;;;;;;;13.68;10.82;;;;;;;;;;5026898;28;20561;-62
2022/07/25 07:24:09;;;;;;;13.77;10.93;;;;;;;;;;5046989;28;20041;-62
2022/07/25 07:26:35;;;;;;;15.23;11.15;;;;;;;;;;5047210;28;20036;-62
2022/07/25 07:29:02;;;;;;;14.20;10.20;;;;;;;;;;5050260;28;20119;-63
2022/07/25 07:31:28;;;;;;;12.65;9.90;;;;;;;;;;5045367;28;20112;-62
2022/07/25 07:33:54;;;;;;;15.93;10.15;;;;;;;;;;5047699;28;20033;-62
2022/07/25 07:36:21;;;;;;;13.57;9.80;;;;;;;;;;5043982;28;20067;-62
2022/07/25 07:38:47;;;;;;;15.45;10.15;;;;;;;;;;5047097;28;20090;-62
2022/07/25 07:41:13;;;;;;;12.57;9.13;;;;;;;;;;5048490;28;20508;-62
2022/07/25 07:43:39;;;;;;;14.15;9.98;;;;;;;;;;5052439;28;20127;-63
2022/07/25 07:46:05;;;;;;;11.70;10.13;;;;;;;;;;5045107;28;20033;-62
2022/07/25 07:48:32;;;;;;;15.65;10.35;;;;;;;;;;5044622;28;20056;-62
2022/07/25 07:50:59;;;;;;;13.05;10.10;;;;;;;;;;5046655;28;20507;-62
2022/07/25 07:55:42;;;;;;;15.25;10.13;;;;;;;;;;5051092;28;20091;-62
2022/07/25 07:56:11;;;;;;;12.48;9.95;;;;;;;;;;5051178;28;20426;-63
2022/07/25 07:58:37;;;;;;;11.55;10.05;;;;;;;;;;5034196;28;20087;-62
2022/07/25 08:01:03;;;;;;;11.40;10.00;;;;;;;;;;5053433;28;20068;-62
2022/07/25 08:03:29;;;;;;;12.73;10.57;;;;;;;;;;5050995;28;20049;-62
2022/07/25 08:05:55;;;;;;;15.88;10.98;;;;;;;;;;5043279;28;20174;-62
2022/07/25 08:08:22;;;;;;;13.00;9.93;;;;;;;;;;5049828;28;20036;-63
2022/07/25 08:10:48;;;;;;;15.48;10.63;;;;;;;;;;5047194;28;20040;-64
2022/07/25 08:13:15;;;;;;;14.50;10.48;;;;;;;;;;5048395;28;20121;-63
2022/07/25 08:15:42;;;;;;;16.98;10.82;;;;;;;;;;5032155;28;20087;-63
2022/07/25 08:18:08;;;;;;;14.82;10.63;;;;;;;;;;5043678;28;20483;-63
2022/07/25 08:20:34;;;;;;;16.02;11.00;;;;;;;;;;5052103;28;20041;-63
2022/07/25 08:23:01;;;;;;;14.13;11.30;;;;;;;;;;5047256;28;20251;-63
2022/07/25 08:25:27;;;;;;;14.15;11.10;;;;;;;;;;5052929;28;20033;-62
2022/07/25 08:27:53;;;;;;;15.00;10.73;;;;;;;;;;5054146;28;20041;-62
2022/07/25 08:30:19;;;;;;;15.55;10.57;;;;;;;;;;5053998;28;20487;-62
2022/07/25 08:32:55;;;;;;;16.40;9.73;;;;;;;;;;5051898;28;20044;-62
2022/07/25 08:35:21;;;;;;;14.02;8.27;;;;;;;;;;5052476;28;20041;-62
2022/07/25 08:37:48;;;;;;;11.27;7.22;;;;;;;;;;5053927;28;20033;-62
2022/07/25 08:40:15;;;;;;;8.43;7.25;;;;;;;;;;5053538;28;20037;-62
2022/07/25 08:42:42;;;;;;;10.20;7.65;;;;;;;;;;5053671;28;20049;-62
2022/07/25 08:45:09;;;;;;;9.38;6.78;;;;;;;;;;5065067;22;20042;-64
2022/07/25 08:47:35;;;;;;;10.68;7.40;;;;;;;;;;5032814;28;20087;-64
2022/07/25 08:50:06;;;;;;;9.65;6.65;;;;;;;;;;5014548;28;20045;-64
2022/07/25 08:52:36;;;;;;;10.05;6.15;;;;;;;;;;5034322;28;20052;-64
2022/07/25 08:55:06;;;;;;;8.40;6.40;;;;;;;;;;5034105;28;20480;-64
2022/07/25 08:57:33;;;;;;;7.30;5.70;;;;;;;;;;5015605;28;20809;-64
2022/07/25 08:59:59;;;;;;;9.18;5.85;;;;;;;;;;5032854;28;20041;-64
2022/07/25 09:02:26;;;;;;;7.75;5.47;;;;;;;;;;5032521;28;20038;-64
2022/07/25 09:04:52;;;;;;;6.65;5.85;;;;;;;;;;5033895;28;20111;-64
2022/07/25 09:07:29;;;;;;;7.13;5.53;;;;;;;;;;5033090;28;20046;-64
2022/07/25 09:09:55;;;;;;;8.10;6.03;;;;;;;;;;5032869;28;20041;-64
2022/07/25 09:12:25;;;;;;;7.40;5.90;;;;;;;;;;5033922;28;20045;-64
2022/07/25 09:14:51;;;;;;;6.78;5.50;;;;;;;;;;5014933;28;20056;-64
2022/07/25 09:17:17;;;;;;;6.95;5.68;;;;;;;;;;5031735;28;20462;-64
2022/07/25 09:19:51;;;;;;;6.57;5.30;;;;;;;;;;5033147;28;20499;-64
2022/07/25 09:22:17;;;;;;;7.43;5.65;;;;;;;;;;5032731;28;20069;-64
2022/07/25 09:24:47;;;;;;;8.05;5.68;;;;;;;;;;5033043;28;20471;-64
2022/07/25 09:27:13;;;;;;;7.27;5.70;;;;;;;;;;5033541;28;20503;-64
2022/07/25 09:29:44;;;;;;;7.72;5.22;;;;;;;;;;5014223;28;20037;-64
2022/07/25 09:32:20;;;;;;;7.30;5.53;;;;;;;;;;5032015;28;20111;-64
2022/07/25 09:34:47;;;;;;;7.97;6.38;;;;;;;;;;5033221;28;20475;-64
2022/07/25 09:37:14;;;;;;;7.00;6.00;;;;;;;;;;5033078;28;20463;-64
2022/07/25 09:39:40;;;;;;;9.93;6.13;;;;;;;;;;5015327;28;20056;-64
2022/07/25 09:42:19;;;;;;;10.80;6.43;;;;;;;;;;5014963;28;20103;-64
2022/07/25 09:44:56;;;;;;;8.27;6.40;;;;;;;;;;5007655;28;20140;-64
2022/07/25 09:47:22;;;;;;;9.95;6.50;;;;;;;;;;5031668;28;20049;-64
2022/07/25 09:49:49;;;;;;;8.30;6.22;;;;;;;;;;5032608;28;20041;-64
2022/07/25 09:52:16;;;;;;;8.55;5.68;;;;;;;;;;5032307;28;20052;-64
2022/07/25 09:54:42;;;;;;;7.95;6.25;;;;;;;;;;5015444;28;20049;-64
2022/07/25 09:57:08;;;;;;;10.23;5.78;;;;;;;;;;5032591;28;20045;-64
2022/07/25 09:59:38;;;;;;;5.97;4.88;;;;;;;;;;5032377;28;20116;-64
2022/07/25 10:02:30;;;;;;;5.82;3.92;;;;;;;;;;5031909;28;20457;-64
2022/07/25 10:05:06;;;;;;;5.30;3.20;;;;;;;;;;5032356;28;20044;-64
2022/07/25 10:07:36;;;;;;;4.32;2.75;;;;;;;;;;5032639;28;20045;-64
2022/07/25 10:10:02;;;;;;;6.00;2.95;;;;;;;;;;5031925;28;20046;-64
2022/07/25 10:12:28;;;;;;;2.35;1.85;;;;;;;;;;5030997;28;20419;-64
2022/07/25 10:15:11;;;;;;;2.58;1.95;;;;;;;;;;5032332;28;20487;-64
2022/07/25 10:17:38;;;;;;;3.28;2.33;;;;;;;;;;5031141;28;20116;-64
2022/07/25 10:20:05;;;;;;;3.85;2.10;;;;;;;;;;5031575;28;20410;-64
2022/07/25 10:22:37;;;;;;;3.97;2.20;;;;;;;;;;5032344;28;20103;-64
2022/07/25 10:25:11;;;;;;;4.43;1.92;;;;;;;;;;5032181;28;20045;-64
2022/07/25 10:27:57;;;;;;;2.80;1.70;;;;;;;;;;5030069;28;20045;-64
2022/07/25 10:30:24;;;;;;;2.83;1.92;;;;;;;;;;5031361;28;20116;-64
2022/07/25 10:33:00;;;;;;;3.97;2.30;;;;;;;;;;5031593;28;20099;-64
2022/07/25 10:35:27;;;;;;;2.63;1.92;;;;;;;;;;5032105;28;20041;-64
2022/07/25 10:37:54;;;;;;;3.22;2.45;;;;;;;;;;5031967;28;20071;-65
2022/07/25 10:40:33;;;;;;;3.33;2.47;;;;;;;;;;5030155;28;20041;-64
2022/07/25 10:43:05;;;;;;;3.80;2.30;;;;;;;;;;5014451;28;20073;-64
2022/07/25 10:45:38;;;;;;;6.15;2.40;;;;;;;;;;5031473;28;20037;-64
2022/07/25 10:48:08;;;;;;;4.05;2.17;;;;;;;;;;5032195;28;20095;-64
2022/07/25 10:50:34;;;;;;;2.93;1.83;;;;;;;;;;5031492;28;20116;-64
2022/07/25 10:53:06;;;;;;;3.55;1.52;;;;;;;;;;5013877;28;20314;-64
2022/07/25 10:55:34;;;;;;;4.72;1.45;;;;;;;;;;5029506;28;20095;-64
2022/07/25 10:58:05;;;;;;;4.95;1.40;;;;;;;;;;5031502;28;20033;-64
2022/07/25 11:00:32;;;;;;;3.58;1.63;;;;;;;;;;5031672;28;20045;-64
2022/07/25 11:02:59;;;;;;;2.75;1.77;;;;;;;;;;5031444;28;20080;-64
2022/07/25 11:05:25;;;;;;;2.20;1.55;;;;;;;;;;5031618;28;20041;-64
2022/07/25 11:07:52;;;;;;;1.58;1.40;;;;;;;;;;5045116;28;20040;-64
2022/07/25 11:10:25;;;;;;;2.53;1.20;;;;;;;;;;5030490;28;20675;-64
2022/07/25 11:12:51;;;;;;;2.05;1.38;;;;;;;;;;5030522;28;20131;-64
2022/07/25 11:15:21;;;;;;;1.50;1.25;;;;;;;;;;5031608;28;20040;-64
2022/07/25 11:17:51;;;;;;;1.77;1.20;;;;;;;;;;5031604;28;20072;-64
2022/07/25 11:20:18;;;;;;;2.42;1.17;;;;;;;;;;5031206;28;20103;-64
2022/07/25 11:22:51;;;;;;;1.30;1.10;;;;;;;;;;5031553;28;20537;-64
2022/07/25 11:25:18;;;;;;;2.45;1.10;;;;;;;;;;5029936;28;20042;-64
2022/07/25 11:27:44;;;;;;;4.05;1.40;;;;;;;;;;5013575;28;20045;-64
2022/07/25 11:30:14;;;;;;;2.65;1.20;;;;;;;;;;5013428;28;20391;-64
2022/07/25 11:32:41;;;;;;;2.42;1.23;;;;;;;;;;5031859;28;20439;-64
2022/07/25 11:35:08;;;;;;;2.53;1.23;;;;;;;;;;5013650;28;20099;-64
2022/07/25 11:37:35;;;;;;;3.17;1.33;;;;;;;;;;5012567;28;20527;-64
2022/07/25 11:40:02;;;;;;;4.45;1.40;;;;;;;;;;5030330;28;20076;-64
2022/07/25 11:42:38;;;;;;;5.00;1.88;;;;;;;;;;5031025;28;20396;-64
2022/07/25 11:45:15;;;;;;;7.40;1.80;;;;;;;;;;5030992;28;20045;-64
2022/07/25 11:47:41;;;;;;;7.10;2.28;;;;;;;;;;5031446;28;20511;-64
2022/07/25 11:50:13;;;;;;;4.57;1.75;;;;;;;;;;5013550;28;20041;-64
2022/07/25 11:52:41;;;;;;;2.97;1.80;;;;;;;;;;5012617;28;20565;-65
2022/07/25 11:55:08;;;;;;;7.40;2.60;;;;;;;;;;4996443;28;20045;-64
2022/07/25 11:57:38;;;;;;;7.15;2.00;;;;;;;;;;5031203;28;20500;-64
2022/07/25 12:00:08;;;;;;;2.35;2.00;;;;;;;;;;5030599;28;20495;-64
2022/07/25 12:02:35;;;;;;;6.73;2.43;;;;;;;;;;5031040;28;20493;-64
2022/07/25 12:05:08;;;;;;;5.55;2.03;;;;;;;;;;5013135;28;20056;-64
2022/07/25 12:07:43;;;;;;;6.25;2.10;;;;;;;;;;5037711;28;20034;-64
2022/07/25 12:10:14;;;;;;;5.85;2.40;;;;;;;;;;5011577;28;20033;-64
2022/07/25 12:12:40;;;;;;;;;;;;;;;;;;5024034;28;20069;-64
2022/07/25 12:15:06;;;;;;;5.00;2.08;;;;;;;;;;5030956;28;20409;-64
2022/07/25 12:17:32;;;;;;;3.88;1.63;;;;;;;;;;5012926;28;20056;-64
2022/07/25 12:19:58;;;;;;;4.93;1.70;;;;;;;;;;5029805;28;20095;-64
2022/07/25 12:22:24;;;;;;;6.18;2.13;;;;;;;;;;5031012;28;20037;-64
2022/07/25 12:24:50;;;;;;;7.72;2.20;;;;;;;;;;5032898;28;20037;-64
2022/07/25 12:27:16;;;;;;;7.53;1.90;;;;;;;;;;5034214;28;20041;-64
2022/07/25 12:29:42;;;;;;;6.05;2.20;;;;;;;;;;5033933;28;20049;-64
2022/07/25 12:32:08;;;;;;;7.15;2.38;;;;;;;;;;5034727;28;20041;-64
2022/07/25 12:34:34;;;;;;;6.95;2.22;;;;;;;;;;5032933;28;20071;-64
2022/07/25 12:37:00;;;;;;;7.63;2.45;;;;;;;;;;5033821;28;20037;-64
2022/07/25 12:39:26;;;;;;;6.95;2.10;;;;;;;;;;5034099;28;20037;-64
2022/07/25 12:41:53;;;;;;;9.32;2.30;;;;;;;;;;5034008;28;20052;-64
2022/07/25 12:44:19;;;;;;;5.82;2.40;;;;;;;;;;5033758;28;20103;-64
2022/07/25 12:46:45;;;;;;;4.10;1.92;;;;;;;;;;5034088;28;20120;-64
2022/07/25 12:49:11;;;;;;;5.75;2.08;;;;;;;;;;5032900;28;20033;-64
2022/07/25 12:51:37;;;;;;;7.07;2.00;;;;;;;;;;5032859;28;20091;-64
2022/07/25 12:54:03;;;;;;;6.85;2.17;;;;;;;;;;5033505;28;20068;-65
2022/07/25 12:56:29;;;;;;;6.50;1.77;;;;;;;;;;5033706;28;20477;-64
2022/07/25 12:58:55;;;;;;;6.22;1.80;;;;;;;;;;5033297;28;20139;-64
2022/07/25 13:01:21;;;;;;;4.75;1.67;;;;;;;;;;5028689;28;20487;-64
2022/07/25 13:03:47;;;;;;;8.77;2.55;;;;;;;;;;5032267;28;20037;-64
2022/07/25 13:06:13;;;;;;;5.90;2.15;;;;;;;;;;5033091;28;20033;-64
2022/07/25 13:08:40;;;;;;;4.22;1.83;;;;;;;;;;5053581;28;20072;-64
2022/07/25 13:11:06;;;;;;;5.38;1.83;;;;;;;;;;5053552;28;20036;-64
2022/07/25 13:13:32;;;;;;;4.93;2.00;;;;;;;;;;5035906;28;20558;-64
2022/07/25 13:15:58;;;;;;;5.60;2.33;;;;;;;;;;5038005;28;20185;-64
2022/07/25 13:18:24;;;;;;;8.02;2.30;;;;;;;;;;5032837;28;20041;-64
2022/07/25 13:20:50;;;;;;;5.15;1.92;;;;;;;;;;5033154;28;20049;-64
2022/07/25 13:23:16;;;;;;;7.15;1.80;;;;;;;;;;5033147;28;20042;-64
2022/07/25 13:25:42;;;;;;;6.40;1.70;;;;;;;;;;5033255;28;20087;-64
2022/07/25 13:28:08;;;;;;;5.18;1.95;;;;;;;;;;5032950;28;20383;-64
2022/07/25 13:30:34;;;;;;;3.05;1.63;;;;;;;;;;5033283;28;20041;-64
2022/07/25 13:33:01;;;;;;;5.28;2.20;;;;;;;;;;5014380;28;20101;-65
2022/07/25 13:35:27;;;;;;;6.95;2.00;;;;;;;;;;5032588;28;20042;-64
2022/07/25 13:37:53;;;;;;;4.88;1.70;;;;;;;;;;5033584;28;20132;-64
2022/07/25 13:40:19;;;;;;;8.98;2.33;;;;;;;;;;5042920;28;20053;-64
2022/07/25 13:42:45;;;;;;;4.38;1.80;;;;;;;;;;5016915;28;20039;-64
2022/07/25 13:45:11;;;;;;;7.05;2.10;;;;;;;;;;5015163;28;20487;-64
2022/07/25 13:47:37;;;;;;;5.72;2.33;;;;;;;;;;5032056;28;20037;-65
2022/07/25 13:50:03;;;;;;;5.40;2.25;;;;;;;;;;5032464;28;20518;-64
2022/07/25 13:52:29;;;;;;;6.13;2.08;;;;;;;;;;5032955;28;20499;-64
2022/07/25 13:54:55;;;;;;;9.27;2.55;;;;;;;;;;5031231;28;20052;-64
2022/07/25 13:57:21;;;;;;;7.63;2.38;;;;;;;;;;5032015;28;20620;-64
2022/07/25 13:59:47;;;;;;;5.45;2.00;;;;;;;;;;5032090;28;20041;-64
2022/07/25 14:02:13;;;;;;;9.38;2.60;;;;;;;;;;5014900;28;20041;-64
2022/07/25 14:04:39;;;;;;;8.13;2.20;;;;;;;;;;5015243;28;20049;-64
2022/07/25 14:07:05;;;;;;;7.97;2.30;;;;;;;;;;5032454;28;20373;-64
2022/07/25 14:09:32;;;;;;;6.68;2.65;;;;;;;;;;5030640;28;20033;-64
2022/07/25 14:11:58;;;;;;;7.88;2.40;;;;;;;;;;5014505;28;20108;-64
2022/07/25 14:14:24;;;;;;;9.60;3.10;;;;;;;;;;5031657;28;20408;-64
2022/07/25 14:16:50;;;;;;;9.93;2.92;;;;;;;;;;5031005;28;20053;-64
2022/07/25 14:19:16;;;;;;;8.70;3.33;;;;;;;;;;5014718;28;20088;-64
2022/07/25 14:21:42;;;;;;;8.20;3.38;;;;;;;;;;5032558;28;20107;-64
2022/07/25 14:24:09;;;;;;;8.32;3.22;;;;;;;;;;5013445;28;20042;-64
2022/07/25 14:26:35;;;;;;;9.48;3.00;;;;;;;;;;5021627;28;20513;-63